createdAt,value
2022-10-19T00:02:12.156Z,14.60
2022-10-19T00:04:38.814Z,14.50
2022-10-19T00:07:05.463Z,14.50
2022-10-19T00:09:32.189Z,14.50
2022-10-19T00:11:58.861Z,14.50
2022-10-19T00:14:25.498Z,14.50
2022-10-19T00:16:53.321Z,14.40
2022-10-19T00:19:25.487Z,14.50
2022-10-19T00:21:52.709Z,14.40
2022-10-19T00:24:19.811Z,14.40
2022-10-19T00:26:47.107Z,14.40
2022-10-19T00:29:15.465Z,14.40
2022-10-19T00:31:42.729Z,14.30
2022-10-19T00:34:09.871Z,14.30
2022-10-19T00:36:40.253Z,14.30
2022-10-19T00:39:10.319Z,14.20
2022-10-19T00:41:38.061Z,14.20
2022-10-19T00:44:12.718Z,14.10
2022-10-19T00:46:44.571Z,14.10
2022-10-19T00:49:18.036Z,14.10
2022-10-19T00:51:48.131Z,14.00
2022-10-19T00:54:16.440Z,14.00
2022-10-19T00:56:45.748Z,14.00
2022-10-19T00:59:16.305Z,13.90
2022-10-19T01:01:44.901Z,13.90
2022-10-19T01:04:12.817Z,13.80
2022-10-19T01:06:41.228Z,13.80
2022-10-19T01:09:08.661Z,13.70
2022-10-19T01:11:53.709Z,13.70
2022-10-19T01:14:46.923Z,13.70
2022-10-19T01:17:24.245Z,13.60
2022-10-19T01:20:28.014Z,13.60
2022-10-19T01:23:18.787Z,13.50
2022-10-19T01:26:02.554Z,13.50
2022-10-19T01:28:50.049Z,13.40
2022-10-19T01:31:28.293Z,13.40
2022-10-19T01:34:19.474Z,13.40
2022-10-19T01:37:11.656Z,13.30
2022-10-19T01:39:55.265Z,13.30
2022-10-19T01:42:30.802Z,13.20
2022-10-19T01:45:00.416Z,13.20
2022-10-19T01:47:34.027Z,13.20
2022-10-19T01:50:13.420Z,13.20
2022-10-19T01:52:41.879Z,13.10
2022-10-19T01:55:11.446Z,13.10
2022-10-19T01:57:43.575Z,13.10
2022-10-19T02:00:12.298Z,13.00
2022-10-19T02:02:43.129Z,13.00
2022-10-19T02:05:11.954Z,13.00
2022-10-19T02:07:42.015Z,12.90
2022-10-19T02:10:08.944Z,12.90
2022-10-19T02:12:36.683Z,12.90
2022-10-19T02:15:13.037Z,12.90
2022-10-19T02:17:45.609Z,12.90
2022-10-19T02:20:12.790Z,12.80
2022-10-19T02:22:40.215Z,12.80
2022-10-19T02:25:08.337Z,12.80
2022-10-19T02:27:38.472Z,12.80
2022-10-19T02:30:05.728Z,12.70
2022-10-19T02:32:32.634Z,12.70
2022-10-19T02:34:59.414Z,12.70
2022-10-19T02:37:26.198Z,12.70
2022-10-19T02:39:52.988Z,12.70
2022-10-19T02:42:22.448Z,12.60
2022-10-19T02:44:58.240Z,12.60
2022-10-19T02:47:42.587Z,12.60
2022-10-19T02:50:10.643Z,12.60
2022-10-19T02:52:38.696Z,12.50
2022-10-19T02:55:06.568Z,12.50
2022-10-19T02:57:33.755Z,12.50
2022-10-19T03:00:00.634Z,12.50
2022-10-19T03:02:52.431Z,12.40
2022-10-19T03:05:19.079Z,12.40
2022-10-19T03:07:45.723Z,12.40
2022-10-19T03:10:12.353Z,12.40
2022-10-19T03:12:38.969Z,12.40
2022-10-19T03:15:06.187Z,12.30
2022-10-19T03:17:33.053Z,12.30
2022-10-19T03:19:59.911Z,12.30
2022-10-19T03:22:26.590Z,12.30
2022-10-19T03:24:53.210Z,12.30
2022-10-19T03:27:19.847Z,12.30
2022-10-19T03:29:46.542Z,12.30
2022-10-19T03:32:13.160Z,12.20
2022-10-19T03:34:39.819Z,12.20
2022-10-19T03:37:06.544Z,12.20
2022-10-19T03:39:33.178Z,12.20
2022-10-19T03:41:59.776Z,12.20
2022-10-19T03:44:26.391Z,12.20
2022-10-19T03:46:53.127Z,12.20
2022-10-19T03:49:19.768Z,12.20
2022-10-19T03:51:47.401Z,12.20
2022-10-19T03:54:15.834Z,12.20
2022-10-19T03:56:42.585Z,12.20
2022-10-19T03:59:14.206Z,12.20
2022-10-19T04:01:44.258Z,12.20
2022-10-19T04:04:14.134Z,12.20
2022-10-19T04:06:45.342Z,12.20
2022-10-19T04:09:15.361Z,12.20
2022-10-19T04:11:42.650Z,12.30
2022-10-19T04:14:22.756Z,12.30
2022-10-19T04:17:00.085Z,12.30
2022-10-19T04:19:26.734Z,12.30
2022-10-19T04:21:53.316Z,12.40
2022-10-19T04:24:20.033Z,12.40
2022-10-19T04:26:49.247Z,12.40
2022-10-19T04:29:18.833Z,12.40
2022-10-19T04:31:45.724Z,12.50
2022-10-19T04:34:12.423Z,12.50
2022-10-19T04:36:39.103Z,12.50
2022-10-19T04:39:06.393Z,12.60
2022-10-19T04:41:33.324Z,12.60
2022-10-19T04:44:02.211Z,12.60
2022-10-19T04:46:30.060Z,12.60
2022-10-19T04:48:57.622Z,12.60
2022-10-19T04:51:25.207Z,12.60
2022-10-19T04:53:53.400Z,12.60
2022-10-19T04:56:26.755Z,12.70
2022-10-19T04:58:57.697Z,12.70
2022-10-19T05:01:26.095Z,12.70
2022-10-19T05:04:00.325Z,12.70
2022-10-19T05:06:27.483Z,12.70
2022-10-19T05:08:54.465Z,12.70
2022-10-19T05:11:21.387Z,12.70
2022-10-19T05:13:48.859Z,12.80
2022-10-19T05:16:20.833Z,12.70
2022-10-19T05:18:49.251Z,12.70
2022-10-19T05:21:16.470Z,12.80
2022-10-19T05:23:43.504Z,12.70
2022-10-19T05:26:13.363Z,12.70
2022-10-19T05:28:40.326Z,12.70
2022-10-19T05:31:13.758Z,12.70
2022-10-19T05:33:41.362Z,12.70
2022-10-19T05:36:26.996Z,12.60
2022-10-19T05:38:56.590Z,12.60
2022-10-19T05:41:24.566Z,12.60
2022-10-19T05:43:57.114Z,12.60
2022-10-19T05:46:25.248Z,12.60
2022-10-19T05:48:51.949Z,12.50
2022-10-19T05:51:20.621Z,12.50
2022-10-19T05:53:47.233Z,12.50
2022-10-19T05:56:16.492Z,12.50
2022-10-19T05:58:43.118Z,12.50
2022-10-19T06:01:10.293Z,12.50
2022-10-19T06:03:36.992Z,12.50
2022-10-19T06:06:05.502Z,12.50
2022-10-19T06:08:32.602Z,12.50
2022-10-19T06:11:06.725Z,12.50
2022-10-19T06:13:33.418Z,12.50
2022-10-19T06:16:00.026Z,12.50
2022-10-19T06:18:26.653Z,12.50
2022-10-19T06:20:53.361Z,12.50
2022-10-19T06:23:19.980Z,12.60
2022-10-19T06:25:46.757Z,12.60
2022-10-19T06:28:13.423Z,12.60
2022-10-19T06:30:41.280Z,12.70
2022-10-19T06:33:08.245Z,12.70
2022-10-19T06:35:35.280Z,12.70
2022-10-19T06:38:01.882Z,12.70
2022-10-19T06:40:28.559Z,12.70
2022-10-19T06:42:56.198Z,12.70
2022-10-19T06:45:22.817Z,12.80
2022-10-19T06:47:49.476Z,12.80
2022-10-19T06:50:16.335Z,12.80
2022-10-19T06:52:43.056Z,12.80
2022-10-19T06:55:10.031Z,12.80
2022-10-19T06:57:36.977Z,12.80
2022-10-19T07:00:05.360Z,12.80
2022-10-19T07:02:33.341Z,12.80
2022-10-19T07:05:04.463Z,12.90
2022-10-19T07:07:34.477Z,12.90
2022-10-19T07:10:01.420Z,12.90
2022-10-19T07:12:28.044Z,12.90
2022-10-19T07:14:55.472Z,12.90
2022-10-19T07:17:22.087Z,12.90
2022-10-19T07:19:48.643Z,12.90
2022-10-19T07:22:20.366Z,12.90
2022-10-19T07:24:49.812Z,12.90
2022-10-19T07:27:16.421Z,13.00
2022-10-19T07:29:43.042Z,13.00
2022-10-19T07:32:09.636Z,13.00
2022-10-19T07:34:36.239Z,13.00
2022-10-19T07:37:02.932Z,13.10
2022-10-19T07:39:29.528Z,13.10
2022-10-19T07:41:56.167Z,13.10
2022-10-19T07:44:22.837Z,13.10
2022-10-19T07:46:50.214Z,13.10
2022-10-19T07:49:18.929Z,13.10
2022-10-19T07:51:46.730Z,13.20
2022-10-19T07:54:13.586Z,13.20
2022-10-19T07:56:41.225Z,13.30
2022-10-19T07:59:07.867Z,13.40
2022-10-19T08:01:41.090Z,13.40
2022-10-19T08:06:54.543Z,13.60
2022-10-19T08:09:51.086Z,13.70
2022-10-19T08:12:12.365Z,13.80
2022-10-19T08:14:41.404Z,13.90
2022-10-19T08:17:11.538Z,14.00
2022-10-19T08:19:42.981Z,14.00
2022-10-19T08:22:10.236Z,14.10
2022-10-19T08:24:36.850Z,14.30
2022-10-19T08:27:03.752Z,14.40
2022-10-19T08:29:31.541Z,14.40
2022-10-19T08:31:59.005Z,14.50
2022-10-19T08:34:25.632Z,14.60
2022-10-19T08:36:52.262Z,14.70
2022-10-19T08:39:18.915Z,14.80
2022-10-19T08:41:57.162Z,14.90
2022-10-19T08:44:52.752Z,15.00
2022-10-19T08:47:38.031Z,15.10
2022-10-19T08:50:51.028Z,15.20
2022-10-19T08:53:45.630Z,15.30
2022-10-19T08:56:50.407Z,15.50
2022-10-19T08:59:57.259Z,15.50
2022-10-19T09:02:54.926Z,15.60
2022-10-19T09:05:31.365Z,15.70
2022-10-19T09:07:59.070Z,15.80
2022-10-19T09:10:29.943Z,15.90
2022-10-19T09:13:22.516Z,16.00
2022-10-19T09:15:52.296Z,16.00
2022-10-19T09:18:22.671Z,16.10
2022-10-19T09:20:53.191Z,16.10
2022-10-19T09:23:34.556Z,16.20
2022-10-19T09:26:01.304Z,16.30
2022-10-19T09:29:05.575Z,16.30
2022-10-19T09:31:40.525Z,16.50
2022-10-19T09:34:21.610Z,16.60
2022-10-19T09:36:54.220Z,16.70
2022-10-19T09:39:21.904Z,16.80
2022-10-19T09:42:07.395Z,16.90
2022-10-19T09:44:34.290Z,17.10
2022-10-19T09:47:37.718Z,17.30
2022-10-19T09:50:09.203Z,17.60
2022-10-19T09:52:39.957Z,17.90
2022-10-19T09:55:28.931Z,18.20
2022-10-19T09:58:19.180Z,18.50
2022-10-19T10:00:57.690Z,18.80
2022-10-19T10:03:30.222Z,19.10
2022-10-19T10:06:01.936Z,19.40
2022-10-19T10:08:33.293Z,19.60
2022-10-19T10:11:13.079Z,19.70
2022-10-19T10:13:42.758Z,19.80
2022-10-19T10:16:13.877Z,19.90
2022-10-19T10:19:02.828Z,19.90
2022-10-19T10:21:33.559Z,19.70
2022-10-19T10:24:16.741Z,19.70
2022-10-19T10:26:51.868Z,19.60
2022-10-19T10:29:23.447Z,19.40
2022-10-19T10:32:13.646Z,19.30
2022-10-19T10:34:50.945Z,19.20
2022-10-19T10:37:22.193Z,19.10
2022-10-19T10:39:57.710Z,18.90
2022-10-19T10:42:41.704Z,18.90
2022-10-19T10:45:23.905Z,18.80
2022-10-19T10:47:52.406Z,18.80
2022-10-19T10:50:25.457Z,18.70
2022-10-19T10:53:06.793Z,18.60
2022-10-19T10:55:34.189Z,18.60
2022-10-19T10:58:26.855Z,18.50
2022-10-19T11:00:56.917Z,18.40
2022-10-19T11:03:28.884Z,18.40
2022-10-19T11:06:00.355Z,18.30
2022-10-19T11:08:50.742Z,18.30
2022-10-19T11:11:22.589Z,18.30
2022-10-19T11:14:07.324Z,18.20
2022-10-19T11:16:40.435Z,18.20
2022-10-19T11:19:35.600Z,18.20
2022-10-19T11:22:05.347Z,18.20
2022-10-19T11:24:59.626Z,18.20
2022-10-19T11:27:26.310Z,18.10
2022-10-19T11:30:11.430Z,18.20
2022-10-19T11:32:41.061Z,18.10
2022-10-19T11:35:23.022Z,18.00
2022-10-19T11:38:21.355Z,18.00
2022-10-19T11:41:13.250Z,18.00
2022-10-19T11:43:44.444Z,17.90
2022-10-19T11:46:40.712Z,17.90
2022-10-19T11:49:35.991Z,17.90
2022-10-19T11:52:31.057Z,17.80
2022-10-19T11:55:15.972Z,17.80
2022-10-19T11:57:55.562Z,17.80
2022-10-19T12:00:41.263Z,17.70
2022-10-19T12:03:41.952Z,17.70
2022-10-19T12:06:30.401Z,17.70
2022-10-19T12:09:10.525Z,17.60
2022-10-19T12:11:58.604Z,17.60
2022-10-19T12:14:30.150Z,17.60
2022-10-19T12:17:02.076Z,17.60
2022-10-19T12:19:40.478Z,17.60
2022-10-19T12:22:15.200Z,17.50
2022-10-19T12:24:41.891Z,17.50
2022-10-19T12:27:14.713Z,17.50
2022-10-19T12:29:45.414Z,17.50
2022-10-19T12:32:16.500Z,17.50
2022-10-19T12:35:06.986Z,17.40
2022-10-19T12:37:47.743Z,17.40
2022-10-19T12:40:43.273Z,17.40
2022-10-19T12:43:15.980Z,17.40
2022-10-19T12:45:49.348Z,17.40
2022-10-19T12:48:19.013Z,17.30
2022-10-19T12:50:48.637Z,17.30
2022-10-19T12:53:39.222Z,17.30
2022-10-19T12:56:18.454Z,17.30
2022-10-19T12:58:50.072Z,17.20
2022-10-19T13:01:21.980Z,17.20
2022-10-19T13:03:53.121Z,17.20
2022-10-19T13:06:32.502Z,17.20
2022-10-19T13:09:06.359Z,17.20
2022-10-19T13:14:19.444Z,17.10
2022-10-19T13:17:02.294Z,17.10
2022-10-19T13:19:29.509Z,17.10
2022-10-19T13:22:02.122Z,17.10
2022-10-19T13:24:35.178Z,17.10
2022-10-19T13:27:04.959Z,17.10
2022-10-19T13:29:37.295Z,17.10
2022-10-19T13:32:31.860Z,17.10
2022-10-19T13:35:20.516Z,17.00
2022-10-19T13:38:07.208Z,17.00
2022-10-19T13:40:35.270Z,17.00
2022-10-19T13:43:02.009Z,17.00
2022-10-19T13:45:28.763Z,17.00
2022-10-19T13:48:09.384Z,17.00
2022-10-19T13:51:05.945Z,16.90
2022-10-19T13:53:44.188Z,16.90
2022-10-19T13:59:32.092Z,16.90
2022-10-19T14:02:33.071Z,16.90
2022-10-19T14:05:21.146Z,16.90
2022-10-19T14:08:11.723Z,16.90
2022-10-19T14:13:25.972Z,16.90
2022-10-19T14:15:57.881Z,16.90
2022-10-19T14:18:28.669Z,16.90
2022-10-19T14:21:04.140Z,16.90
2022-10-19T14:23:42.585Z,16.90
2022-10-19T14:26:21.388Z,16.90
2022-10-19T14:28:54.088Z,16.90
2022-10-19T14:31:24.521Z,16.90
2022-10-19T14:33:53.540Z,16.90
2022-10-19T14:36:22.669Z,16.90
2022-10-19T14:38:53.616Z,16.90
2022-10-19T14:41:35.903Z,16.90
2022-10-19T14:44:40.748Z,16.80
2022-10-19T14:47:27.072Z,16.80
2022-10-19T14:49:53.910Z,16.80
2022-10-19T14:55:05.854Z,16.80
2022-10-19T14:57:36.681Z,16.80
2022-10-19T15:00:14.701Z,16.70
2022-10-19T15:03:00.673Z,16.70
2022-10-19T15:05:30.955Z,16.70
2022-10-19T15:08:05.893Z,16.70
2022-10-19T15:10:43.186Z,16.60
2022-10-19T15:13:28.881Z,16.60
2022-10-19T15:15:55.824Z,16.60
2022-10-19T15:18:50.806Z,16.50
2022-10-19T15:21:18.794Z,16.50
2022-10-19T15:23:51.199Z,16.40
2022-10-19T15:26:29.152Z,16.40
2022-10-19T15:29:18.695Z,16.40
2022-10-19T15:31:45.352Z,16.30
2022-10-19T15:34:28.746Z,16.30
2022-10-19T15:37:00.725Z,16.30
2022-10-19T15:39:39.890Z,16.20
2022-10-19T15:42:44.214Z,16.20
2022-10-19T15:45:34.764Z,16.10
2022-10-19T15:48:10.420Z,16.00
2022-10-19T15:50:47.748Z,16.00
2022-10-19T15:53:15.510Z,16.00
2022-10-19T15:55:42.170Z,15.90
2022-10-19T15:58:10.654Z,15.90
2022-10-19T16:00:37.587Z,15.80
2022-10-19T16:03:04.400Z,15.80
2022-10-19T16:05:31.536Z,15.80
2022-10-19T16:07:58.157Z,15.70
2022-10-19T16:10:26.892Z,15.70
2022-10-19T16:12:53.708Z,15.70
2022-10-19T16:15:22.866Z,15.60
2022-10-19T16:18:00.405Z,15.60
2022-10-19T16:20:28.635Z,15.60
2022-10-19T16:22:55.732Z,15.50
2022-10-19T16:25:22.354Z,15.50
2022-10-19T16:27:49.015Z,15.40
2022-10-19T16:30:15.709Z,15.40
2022-10-19T16:35:13.921Z,15.30
2022-10-19T16:37:41.451Z,15.20
2022-10-19T16:40:08.817Z,15.20
2022-10-19T16:42:35.737Z,15.10
2022-10-19T16:45:02.766Z,15.10
2022-10-19T16:47:29.392Z,15.10
2022-10-19T16:49:59.824Z,15.00
2022-10-19T16:52:27.985Z,15.00
2022-10-19T16:54:54.674Z,15.00
2022-10-19T16:57:21.332Z,14.90
2022-10-19T17:02:23.334Z,14.90
2022-10-19T17:04:50.104Z,14.80
2022-10-19T17:07:17.520Z,14.80
2022-10-19T17:09:44.407Z,14.80
2022-10-19T17:12:11.655Z,14.80
2022-10-19T17:14:40.735Z,14.70
2022-10-19T17:17:07.884Z,14.70
2022-10-19T17:19:35.396Z,14.70
2022-10-19T17:22:02.900Z,14.60
2022-10-19T17:24:30.944Z,14.60
2022-10-19T17:27:00.270Z,14.50
2022-10-19T17:29:26.902Z,14.50
2022-10-19T17:31:53.514Z,14.40
2022-10-19T17:34:20.219Z,14.40
2022-10-19T17:36:47.458Z,14.30
2022-10-19T17:39:22.135Z,14.30
2022-10-19T17:41:52.019Z,14.20
2022-10-19T17:44:20.770Z,14.20
2022-10-19T17:46:47.954Z,14.20
2022-10-19T17:49:14.977Z,14.10
2022-10-19T17:51:41.950Z,14.10
2022-10-19T17:54:11.754Z,14.00
2022-10-19T17:56:39.140Z,14.00
2022-10-19T17:59:08.697Z,13.90
2022-10-19T18:01:36.284Z,13.90
2022-10-19T18:04:03.198Z,13.90
2022-10-19T18:06:32.967Z,13.80
2022-10-19T18:09:01.206Z,13.80
2022-10-19T18:11:30.946Z,13.80
2022-10-19T18:13:59.720Z,13.80
2022-10-19T18:16:35.029Z,13.70
2022-10-19T18:19:03.384Z,13.70
2022-10-19T18:21:41.225Z,13.70
2022-10-19T18:24:14.374Z,13.60
2022-10-19T18:26:42.987Z,13.60
2022-10-19T18:29:19.114Z,13.60
2022-10-19T18:31:51.121Z,13.60
2022-10-19T18:34:21.474Z,13.60
2022-10-19T18:36:48.857Z,13.60
2022-10-19T18:39:15.570Z,13.50
2022-10-19T18:41:42.251Z,13.50
2022-10-19T18:44:12.420Z,13.50
2022-10-19T18:46:39.666Z,13.50
2022-10-19T18:49:08.124Z,13.50
2022-10-19T18:51:35.062Z,13.40
2022-10-19T18:54:01.805Z,13.40
2022-10-19T18:56:29.346Z,13.40
2022-10-19T18:58:56.530Z,13.40
2022-10-19T19:01:26.690Z,13.40
2022-10-19T19:03:55.620Z,13.40
2022-10-19T19:06:29.222Z,13.30
2022-10-19T19:08:57.434Z,13.30
2022-10-19T19:11:26.889Z,13.30
2022-10-19T19:14:02.114Z,13.30
2022-10-19T19:16:32.258Z,13.30
2022-10-19T19:18:58.928Z,13.20
2022-10-19T19:21:27.899Z,13.20
2022-10-19T19:23:58.686Z,13.20
2022-10-19T19:26:27.640Z,13.20
2022-10-19T19:28:54.441Z,13.20
2022-10-19T19:31:21.145Z,13.20
2022-10-19T19:33:48.342Z,13.20
2022-10-19T19:36:16.604Z,13.20
2022-10-19T19:38:43.480Z,13.10
2022-10-19T19:41:12.876Z,13.10
2022-10-19T19:43:40.148Z,13.10
2022-10-19T19:46:09.442Z,13.10
2022-10-19T19:48:40.546Z,13.10
2022-10-19T19:51:19.469Z,13.10
2022-10-19T19:53:47.714Z,13.00
2022-10-19T19:56:16.042Z,13.00
2022-10-19T19:58:43.584Z,13.00
2022-10-19T20:01:16.059Z,13.00
2022-10-19T20:03:43.426Z,12.90
2022-10-19T20:06:10.521Z,12.90
2022-10-19T20:08:38.537Z,12.90
2022-10-19T20:11:11.361Z,12.90
2022-10-19T20:13:38.489Z,12.90
2022-10-19T20:16:11.638Z,12.80
2022-10-19T20:18:44.558Z,12.80
2022-10-19T20:21:11.439Z,12.80
2022-10-19T20:23:38.578Z,12.80
2022-10-19T20:26:05.557Z,12.80
2022-10-19T20:28:33.225Z,12.70
2022-10-19T20:31:08.552Z,12.70
2022-10-19T20:33:37.516Z,12.70
2022-10-19T20:36:14.020Z,12.70
2022-10-19T20:38:44.767Z,12.60
2022-10-19T20:41:11.385Z,12.60
2022-10-19T20:43:38.410Z,12.60
2022-10-19T20:46:13.931Z,12.50
2022-10-19T20:48:40.947Z,12.50
2022-10-19T20:51:29.125Z,12.50
2022-10-19T20:54:00.572Z,12.40
2022-10-19T20:56:29.446Z,12.40
2022-10-19T21:01:30.296Z,12.30
2022-10-19T21:04:00.377Z,12.30
2022-10-19T21:06:28.698Z,12.30
2022-10-19T21:08:55.861Z,12.20
2022-10-19T21:11:23.893Z,12.20
2022-10-19T21:13:55.442Z,12.10
2022-10-19T21:16:23.783Z,12.10
2022-10-19T21:18:50.793Z,12.10
2022-10-19T21:21:17.374Z,12.10
2022-10-19T21:23:46.351Z,12.10
2022-10-19T21:26:13.817Z,12.10
2022-10-19T21:28:45.179Z,12.00
2022-10-19T21:31:11.827Z,12.00
2022-10-19T21:33:38.460Z,12.00
2022-10-19T21:36:06.966Z,12.00
2022-10-19T21:38:34.362Z,12.00
2022-10-19T21:41:02.817Z,11.90
2022-10-19T21:43:29.986Z,11.90
2022-10-19T21:45:57.057Z,11.90
2022-10-19T21:48:24.048Z,11.90
2022-10-19T21:50:50.711Z,11.90
2022-10-19T21:53:19.647Z,11.80
2022-10-19T21:55:46.532Z,11.80
2022-10-19T21:58:13.162Z,11.80
2022-10-19T22:00:39.857Z,11.80
2022-10-19T22:03:06.592Z,11.80
2022-10-19T22:05:33.314Z,11.70
2022-10-19T22:07:59.922Z,11.70
2022-10-19T22:10:26.749Z,11.70
2022-10-19T22:12:53.439Z,11.60
2022-10-19T22:15:20.045Z,11.60
2022-10-19T22:17:46.722Z,11.60
2022-10-19T22:20:13.377Z,11.60
2022-10-19T22:22:40.305Z,11.60
2022-10-19T22:25:07.214Z,11.50
2022-10-19T22:27:34.138Z,11.50
2022-10-19T22:30:00.800Z,11.40
2022-10-19T22:32:27.390Z,11.40
2022-10-19T22:34:53.976Z,11.40
2022-10-19T22:37:20.566Z,11.40
2022-10-19T22:39:47.182Z,11.30
2022-10-19T22:42:13.829Z,11.30
2022-10-19T22:44:40.435Z,11.30
2022-10-19T22:47:07.010Z,11.20
2022-10-19T22:49:33.605Z,11.20
2022-10-19T22:52:00.199Z,11.20
2022-10-19T22:54:26.822Z,11.20
2022-10-19T22:56:53.551Z,11.20
2022-10-19T22:59:20.196Z,11.10
2022-10-19T23:01:46.927Z,11.10
2022-10-19T23:04:13.581Z,11.10
2022-10-19T23:06:40.714Z,11.10
2022-10-19T23:09:07.325Z,11.10
2022-10-19T23:11:34.095Z,11.00
2022-10-19T23:14:00.678Z,11.00
2022-10-19T23:18:54.924Z,11.00
2022-10-19T23:21:21.517Z,10.90
2022-10-19T23:23:48.190Z,10.90
2022-10-19T23:26:19.952Z,10.90
2022-10-19T23:28:49.261Z,10.90
2022-10-19T23:31:18.612Z,10.90
2022-10-19T23:33:45.736Z,10.80
2022-10-19T23:36:24.193Z,10.80
2022-10-19T23:38:51.827Z,10.80
2022-10-19T23:41:19.906Z,10.80
2022-10-19T23:43:46.723Z,10.80
2022-10-19T23:46:13.889Z,10.80
2022-10-19T23:48:41.826Z,10.80
2022-10-19T23:51:11.289Z,10.80
2022-10-19T23:53:41.289Z,10.70
2022-10-19T23:56:29.311Z,10.70
2022-10-19T23:58:56.643Z,10.70
